Time;durP1;ratioP1;P1;durP2;ratioP2;P2;SDS_P1;SDS_P2;PMS_P1;PMS_P2;Temp;Humidity;BMP_temperature;BMP_pressure;BME280_temperature;BME280_humidity;BME280_pressure;Samples;Min_cycle;Max_cycle;Signal;HPM_P1;HPM_P2
2021/04/11 00:00:53;;;;;;;18.65;11.88;;;;;;;2.80;59.43;101571.70;1761189;79;21221;-77
2021/04/11 00:03:24;;;;;;;17.77;12.03;;;;;;;2.77;59.48;101574.20;1755816;80;21202;-76
2021/04/11 00:05:56;;;;;;;18.48;11.12;;;;;;;2.76;59.44;101570.41;1757896;79;21184;-75
2021/04/11 00:08:25;;;;;;;18.42;11.70;;;;;;;2.76;59.38;101574.36;1759820;80;21146;-77
2021/04/11 00:10:59;;;;;;;18.30;11.28;;;;;;;2.76;59.38;101573.05;1767095;79;21176;-77
2021/04/11 00:13:31;;;;;;;19.85;12.30;;;;;;;2.75;59.37;101572.23;1751219;79;21153;-76
2021/04/11 00:15:59;;;;;;;19.62;12.40;;;;;;;2.75;59.34;101571.42;1757484;79;21336;-77
2021/04/11 00:18:27;;;;;;;20.12;12.63;;;;;;;2.74;59.31;101581.66;1704057;84;21624;-76
2021/04/11 00:20:59;;;;;;;19.67;13.43;;;;;;;2.72;59.32;101573.09;1761974;80;21202;-76
2021/04/11 00:23:27;;;;;;;18.98;12.70;;;;;;;2.71;59.33;101573.59;1759816;79;21176;-77
2021/04/11 00:25:55;;;;;;;20.88;12.00;;;;;;;2.69;59.39;101574.27;1758769;79;21192;-76
2021/04/11 00:28:24;;;;;;;18.87;12.10;;;;;;;2.69;59.43;101577.41;1755581;79;21774;-76
2021/04/11 00:30:53;;;;;;;21.30;11.93;;;;;;;2.66;59.64;101581.72;1760495;79;21165;-76
2021/04/11 00:33:31;;;;;;;20.40;12.80;;;;;;;2.62;59.69;101585.22;1769275;79;21260;-76
2021/04/11 00:36:09;;;;;;;20.40;12.53;;;;;;;2.59;59.73;101588.21;1769533;79;21178;-76
2021/04/11 00:38:38;;;;;;;17.98;11.68;;;;;;;2.58;59.83;101589.22;1757416;79;21615;-76
2021/04/11 00:41:29;;;;;;;22.62;13.22;;;;;;;2.55;59.92;101583.80;1768714;79;21332;-76
2021/04/11 00:44:01;;;;;;;19.17;12.68;;;;;;;2.53;59.99;101588.92;1765631;79;21142;-76
2021/04/11 00:46:43;;;;;;;20.43;12.07;;;;;;;2.49;60.15;101588.46;1765292;80;21464;-75
2021/04/11 00:49:27;;;;;;;20.32;12.10;;;;;;;2.46;60.25;101593.27;1755556;79;21201;-75
2021/04/11 00:51:57;;;;;;;19.25;12.37;;;;;;;2.43;60.26;101594.44;1742546;80;21268;-76
2021/04/11 00:54:26;;;;;;;21.00;13.00;;;;;;;2.40;60.37;101590.84;1753211;79;22400;-76
2021/04/11 00:56:55;;;;;;;16.55;12.28;;;;;;;2.38;60.42;101592.85;1758216;80;21505;-77
2021/04/11 00:59:23;;;;;;;18.30;11.85;;;;;;;2.39;60.29;101593.67;1741176;80;21042;-76
2021/04/11 01:01:52;;;;;;;20.12;11.75;;;;;;;2.38;60.18;101588.08;1737478;80;21706;-76
2021/04/11 01:04:20;;;;;;;18.23;12.18;;;;;;;2.37;60.22;101592.55;1770564;79;21109;-75
2021/04/11 01:06:58;;;;;;;20.72;12.00;;;;;;;2.36;60.21;101592.20;1746372;80;21175;-74
2021/04/11 01:09:32;;;;;;;19.00;12.28;;;;;;;2.33;60.37;101589.41;1764888;80;21152;-76
2021/04/11 01:12:06;;;;;;;19.85;12.10;;;;;;;2.30;60.38;101593.75;1758002;79;21081;-75
2021/04/11 01:14:38;;;;;;;20.60;12.85;;;;;;;2.29;60.38;101593.91;1777249;79;21142;-75
2021/04/11 01:17:13;;;;;;;19.25;12.28;;;;;;;2.27;60.39;101598.52;1726435;81;21113;-76
2021/04/11 01:19:43;;;;;;;21.05;12.82;;;;;;;2.26;60.42;101601.66;1771996;79;21222;-76
2021/04/11 01:22:35;;;;;;;;;;;;;;;2.24;60.47;101601.04;1767384;79;21150;-77
2021/04/11 01:25:18;;;;;;;23.10;13.13;;;;;;;2.20;60.55;101598.41;1752779;78;20183;-75
2021/04/11 01:27:47;;;;;;;21.40;13.13;;;;;;;2.18;60.55;101593.02;1763704;80;21080;-76
2021/04/11 01:30:24;;;;;;;19.23;12.78;;;;;;;2.16;60.56;101597.13;1775745;79;21208;-76
2021/04/11 01:33:02;;;;;;;17.73;12.13;;;;;;;2.19;60.63;101594.64;1757421;79;22782;-71
2021/04/11 01:35:33;;;;;;;22.50;13.20;;;;;;;2.12;60.67;101602.44;1714220;82;21125;-70
2021/04/11 01:38:02;;;;;;;18.75;12.55;;;;;;;2.10;60.77;101604.41;1727415;82;22297;-70
2021/04/11 01:40:54;;;;;;;21.93;13.22;;;;;;;2.09;60.84;101599.64;1729073;82;21608;-70
2021/04/11 01:43:24;;;;;;;17.10;12.35;;;;;;;2.08;60.87;101597.20;1732944;82;21125;-71
2021/04/11 01:45:52;;;;;;;18.95;12.68;;;;;;;2.06;60.95;101602.63;1726275;82;21576;-71
2021/04/11 01:48:22;;;;;;;16.90;11.65;;;;;;;2.05;61.04;101600.19;1727494;82;21061;-72
2021/04/11 01:50:50;;;;;;;21.65;13.10;;;;;;;2.03;61.18;101596.39;1728183;81;21431;-70
2021/04/11 01:53:18;;;;;;;19.70;12.40;;;;;;;2.02;61.40;101596.08;1726389;82;21715;-70
2021/04/11 01:55:51;;;;;;;18.80;12.18;;;;;;;2.00;61.55;101598.05;1739964;82;20947;-71
2021/04/11 01:58:20;;;;;;;17.90;12.05;;;;;;;1.99;61.71;101600.38;1724051;81;22335;-71
2021/04/11 02:01:22;;;;;;;19.77;13.00;;;;;;;1.97;61.87;101600.22;1731541;82;21161;-70
2021/04/11 02:03:56;;;;;;;17.77;12.40;;;;;;;1.93;62.07;101599.75;1732422;82;21819;-70
2021/04/11 02:06:24;;;;;;;19.75;13.03;;;;;;;1.89;62.18;101605.05;1723061;82;21592;-71
2021/04/11 02:09:00;;;;;;;19.98;12.70;;;;;;;1.87;62.27;101605.71;1729793;82;21140;-71
2021/04/11 02:11:31;;;;;;;18.57;12.37;;;;;;;1.85;62.30;101602.45;1727966;82;21038;-70
2021/04/11 02:13:59;;;;;;;18.92;12.70;;;;;;;1.83;62.30;101607.88;1668244;82;21176;-72
2021/04/11 02:16:34;;;;;;;19.77;13.08;;;;;;;1.82;62.31;101610.20;1739357;82;21349;-69
2021/04/11 02:19:05;;;;;;;20.08;12.40;;;;;;;1.78;62.38;101616.81;1732905;82;21180;-69
2021/04/11 02:21:34;;;;;;;18.45;12.43;;;;;;;1.76;62.45;101620.60;1727299;82;21563;-70
2021/04/11 02:24:06;;;;;;;19.50;12.70;;;;;;;1.73;62.59;101622.27;1732520;80;21658;-70
2021/04/11 02:26:41;;;;;;;19.57;12.33;;;;;;;1.69;62.66;101616.52;1735495;80;21173;-70
2021/04/11 02:29:16;;;;;;;18.95;12.85;;;;;;;1.68;62.78;101625.89;1726158;81;21212;-71
2021/04/11 02:31:46;;;;;;;18.25;12.53;;;;;;;1.66;62.98;101622.12;1723932;82;21141;-69
2021/04/11 02:34:26;;;;;;;20.02;12.98;;;;;;;1.63;63.14;101628.55;1664622;83;21215;-71
2021/04/11 02:37:09;;;;;;;22.30;14.13;;;;;;;1.60;63.30;101632.84;1687499;84;21204;-70
2021/04/11 02:39:41;;;;;;;23.18;13.80;;;;;;;1.55;63.41;101635.19;1675988;84;21165;-71
2021/04/11 02:42:23;;;;;;;20.60;13.78;;;;;;;1.53;63.51;101635.84;1672199;84;21388;-69
2021/04/11 02:44:53;;;;;;;18.10;12.70;;;;;;;1.51;63.58;101640.95;1677463;84;21671;-70
2021/04/11 02:47:24;;;;;;;23.02;13.95;;;;;;;1.48;63.70;101637.34;1680731;84;21597;-70
2021/04/11 02:49:53;;;;;;;20.75;13.65;;;;;;;1.45;63.86;101639.84;1657898;84;21233;-70
2021/04/11 02:52:38;;;;;;;21.48;13.65;;;;;;;1.41;63.97;101645.09;1677577;84;21173;-71
2021/04/11 02:55:10;;;;;;;19.57;13.28;;;;;;;1.38;64.10;101646.28;1717822;82;22335;-70
2021/04/11 02:57:38;;;;;;;21.62;14.45;;;;;;;1.35;64.25;101645.77;1715459;82;21200;-70
2021/04/11 03:00:10;;;;;;;19.62;13.15;;;;;;;1.33;64.33;101647.27;1705946;84;21117;-70
2021/04/11 03:02:39;;;;;;;19.77;13.75;;;;;;;1.32;64.35;101650.08;1714572;82;21609;-70
2021/04/11 03:05:11;;;;;;;20.97;13.62;;;;;;;1.30;64.42;101652.05;1719710;82;21094;-69
2021/04/11 03:07:49;;;;;;;23.42;13.00;;;;;;;1.26;64.45;101650.25;1720509;82;21197;-69
2021/04/11 03:10:38;;;;;;;18.35;12.30;;;;;;;1.27;64.49;101653.70;1665148;85;21097;-69
2021/04/11 03:13:06;;;;;;;18.50;12.73;;;;;;;1.25;64.52;101663.56;1673014;84;21227;-69
2021/04/11 03:15:34;;;;;;;18.82;12.60;;;;;;;1.23;64.71;101668.19;1658182;84;21701;-69
2021/04/11 03:18:02;;;;;;;19.82;12.78;;;;;;;1.20;64.78;101677.73;1660858;84;21081;-70
2021/04/11 03:20:34;;;;;;;20.50;13.10;;;;;;;1.16;64.91;101679.38;1682024;84;21266;-70
2021/04/11 03:23:09;;;;;;;18.98;12.88;;;;;;;1.14;65.05;101678.72;1669039;84;21085;-70
2021/04/11 03:25:39;;;;;;;18.75;13.28;;;;;;;1.12;65.14;101684.66;1673893;82;21134;-70
2021/04/11 03:28:21;;;;;;;18.75;12.43;;;;;;;1.11;65.26;101688.27;1713409;82;21093;-70
2021/04/11 03:31:04;;;;;;;19.32;12.20;;;;;;;1.09;65.37;101691.57;1717884;82;21161;-71
2021/04/11 03:33:38;;;;;;;18.85;12.37;;;;;;;1.08;65.61;101700.43;1707908;81;22065;-71
2021/04/11 03:36:08;;;;;;;19.20;12.47;;;;;;;1.07;65.84;101700.11;1698082;82;21181;-71
2021/04/11 03:38:36;;;;;;;18.90;11.85;;;;;;;1.08;66.07;101702.25;1709350;82;21557;-70
2021/04/11 03:41:05;;;;;;;17.50;12.47;;;;;;;1.09;66.24;101706.05;1718365;82;21169;-70
2021/04/11 03:43:41;;;;;;;19.60;13.15;;;;;;;1.10;66.49;101712.94;1713470;82;21185;-70
2021/04/11 03:46:24;;;;;;;18.30;12.25;;;;;;;1.11;66.74;101714.57;1713496;82;21210;-70
2021/04/11 03:49:09;;;;;;;18.82;12.00;;;;;;;1.13;66.94;101716.55;1724595;82;21522;-69
2021/04/11 03:51:41;;;;;;;18.17;12.20;;;;;;;1.17;67.20;101720.98;1684695;82;21196;-69
2021/04/11 03:54:24;;;;;;;17.70;12.30;;;;;;;1.22;67.38;101728.37;1721379;82;21658;-69
2021/04/11 03:57:27;;;;;;;18.57;12.15;;;;;;;1.27;67.51;101733.97;1720204;82;21707;-69
2021/04/11 04:00:05;;;;;;;16.90;11.12;;;;;;;1.31;67.69;101730.83;1711369;82;21186;-69
2021/04/11 04:02:38;;;;;;;17.55;11.93;;;;;;;1.38;67.85;101731.83;1716987;82;21132;-69
2021/04/11 04:05:10;;;;;;;19.10;12.07;;;;;;;1.46;67.98;101728.85;1717323;81;21209;-69
2021/04/11 04:07:53;;;;;;;18.67;12.28;;;;;;;1.52;68.09;101734.27;1710994;82;21092;-69
2021/04/11 04:10:27;;;;;;;19.05;12.00;;;;;;;1.61;68.18;101733.27;1736967;82;21197;-70
2021/04/11 04:13:25;;;;;;;17.60;12.07;;;;;;;1.73;68.22;101738.16;1711760;82;21389;-70
2021/04/11 04:16:14;;;;;;;19.60;11.97;;;;;;;1.81;68.24;101738.11;1693389;82;21736;-70
2021/04/11 04:19:20;;;;;;;18.25;11.53;;;;;;;1.95;68.25;101744.00;1703870;82;21120;-71
2021/04/11 04:22:20;;;;;;;18.80;12.70;;;;;;;2.06;68.20;101749.39;1722791;82;21280;-72
2021/04/11 04:25:00;;;;;;;17.80;12.10;;;;;;;2.20;68.07;101744.70;1716729;82;21482;-71
2021/04/11 04:27:41;;;;;;;18.40;12.83;;;;;;;2.41;67.79;101741.48;1834156;76;23033;-71
2021/04/11 04:30:22;;;;;;;19.15;13.15;;;;;;;2.47;67.48;101750.48;1815149;76;21136;-72
2021/04/11 04:33:25;;;;;;;17.20;12.23;;;;;;;2.61;67.32;101750.27;1829615;77;23495;-71
2021/04/11 04:36:17;;;;;;;18.20;12.05;;;;;;;2.74;67.03;101751.82;1824387;77;21127;-73
2021/04/11 04:39:16;;;;;;;18.15;12.80;;;;;;;2.89;66.78;101755.31;1808461;77;21152;-71
2021/04/11 04:42:14;;;;;;;17.92;13.00;;;;;;;3.04;66.56;101763.30;1831344;77;21124;-71
2021/04/11 04:45:10;;;;;;;18.10;11.93;;;;;;;3.20;66.28;101757.06;1644608;85;21231;-72
2021/04/11 04:47:51;;;;;;;21.17;12.82;;;;;;;3.35;65.96;101755.26;1643068;85;21615;-70
2021/04/11 04:50:30;;;;;;;17.50;12.53;;;;;;;3.51;65.62;101757.73;1662817;84;21709;-70
2021/04/11 04:53:21;;;;;;;18.98;12.98;;;;;;;3.66;65.36;101753.80;1642789;85;21153;-72
2021/04/11 04:55:54;;;;;;;20.40;12.78;;;;;;;3.81;65.15;101755.11;1669492;84;21588;-70
2021/04/11 04:58:29;;;;;;;16.67;11.18;;;;;;;3.97;64.88;101755.42;1662370;84;21148;-71
2021/04/11 05:01:20;;;;;;;18.42;12.10;;;;;;;4.11;64.60;101758.55;1662196;84;21271;-71
2021/04/11 05:03:54;;;;;;;13.72;8.80;;;;;;;4.27;64.38;101760.67;1667878;85;21175;-71
2021/04/11 05:06:34;;;;;;;19.02;12.90;;;;;;;4.42;64.02;101765.44;1667389;84;21158;-70
2021/04/11 05:09:31;;;;;;;19.23;13.35;;;;;;;4.59;63.71;101768.67;1670033;85;21123;-72
2021/04/11 05:12:21;;;;;;;21.10;14.05;;;;;;;4.73;63.03;101766.47;1669244;85;21152;-72
2021/04/11 05:14:55;;;;;;;20.17;13.03;;;;;;;4.91;62.56;101764.22;1668612;85;21394;-71
2021/04/11 05:17:37;;;;;;;22.22;13.65;;;;;;;5.11;62.08;101763.58;1669028;84;21640;-71
2021/04/11 05:20:14;;;;;;;20.75;13.93;;;;;;;5.31;61.45;101762.41;1663508;85;21204;-71
2021/04/11 05:22:52;;;;;;;21.40;13.25;;;;;;;5.48;60.82;101763.75;1661521;84;21476;-71
2021/04/11 05:25:38;;;;;;;20.85;13.58;;;;;;;5.64;60.32;101766.61;1670039;84;21513;-73
2021/04/11 05:28:19;;;;;;;19.02;12.75;;;;;;;5.80;59.91;101765.48;1668524;84;22387;-71
2021/04/11 05:31:15;;;;;;;20.12;12.75;;;;;;;5.96;59.46;101767.03;1672108;84;21188;-70
2021/04/11 05:33:43;;;;;;;17.05;12.20;;;;;;;6.10;58.96;101768.72;1667035;84;21696;-71
2021/04/11 05:36:41;;;;;;;18.10;12.78;;;;;;;6.24;58.29;101771.73;1666720;84;21260;-72
2021/04/11 05:39:39;;;;;;;16.40;11.38;;;;;;;6.36;57.82;101765.87;1668859;84;21223;-70
2021/04/11 05:42:37;;;;;;;16.85;12.37;;;;;;;6.50;57.58;101767.02;1668972;85;21214;-71
2021/04/11 05:45:26;;;;;;;17.27;11.95;;;;;;;6.58;57.03;101768.19;1661018;84;21220;-70
2021/04/11 05:48:28;;;;;;;17.05;11.18;;;;;;;6.70;56.71;101771.05;1666186;84;21228;-71
2021/04/11 05:51:18;;;;;;;15.72;11.40;;;;;;;6.85;56.62;101768.75;1669374;85;21232;-72
2021/04/11 05:53:56;;;;;;;17.05;11.55;;;;;;;7.00;56.02;101768.84;1672063;84;21253;-73
2021/04/11 05:56:28;;;;;;;15.08;10.98;;;;;;;7.18;55.38;101772.75;1668441;84;21394;-73
2021/04/11 05:59:01;;;;;;;;;;;;;;;7.29;54.99;101772.94;1671246;84;21217;-72
2021/04/11 06:01:41;;;;;;;17.48;11.18;;;;;;;7.37;53.70;101767.11;1668721;84;20288;-73
2021/04/11 06:04:16;;;;;;;14.95;11.20;;;;;;;7.46;53.60;101769.86;1669293;84;21787;-72
2021/04/11 06:07:14;;;;;;;14.38;10.35;;;;;;;7.58;52.47;101772.20;1668912;84;21249;-72
2021/04/11 06:09:54;;;;;;;17.20;11.48;;;;;;;7.67;51.44;101770.97;1668189;84;21405;-71
2021/04/11 06:12:41;;;;;;;15.55;11.05;;;;;;;7.80;51.69;101768.80;1631780;84;21552;-73
2021/04/11 06:15:16;;;;;;;16.10;11.20;;;;;;;7.93;51.21;101770.09;1639770;86;21209;-72
2021/04/11 06:17:45;;;;;;;13.15;9.08;;;;;;;8.10;50.65;101766.45;1665799;84;21185;-71
2021/04/11 06:20:14;;;;;;;15.60;10.58;;;;;;;8.25;49.75;101768.83;1668745;84;21288;-74
2021/04/11 06:22:56;;;;;;;15.43;11.00;;;;;;;8.35;48.99;101773.18;1665313;84;21221;-71
2021/04/11 06:26:08;;;;;;;17.25;11.05;;;;;;;8.45;48.61;101774.90;1642996;85;21242;-71
2021/04/11 06:28:54;;;;;;;14.98;10.55;;;;;;;8.58;48.42;101767.88;1642888;85;21263;-70
2021/04/11 06:31:37;;;;;;;16.10;10.15;;;;;;;8.75;47.98;101772.17;1627405;87;21258;-69
2021/04/11 06:34:08;;;;;;;;;;;;;;;8.90;47.61;101777.51;1637177;85;21230;-73
2021/04/11 06:36:39;;;;;;;14.18;10.13;;;;;;;9.05;46.93;101778.55;1640534;86;22412;-71
2021/04/11 06:39:13;;;;;;;15.80;10.72;;;;;;;9.17;46.38;101779.97;1662646;84;21156;-72
2021/04/11 06:42:08;;;;;;;15.32;10.58;;;;;;;9.29;46.01;101784.91;1657137;84;21864;-72
2021/04/11 06:44:59;;;;;;;15.90;10.98;;;;;;;9.41;45.42;101783.69;1655905;86;21199;-71
2021/04/11 06:47:58;;;;;;;17.05;11.00;;;;;;;9.53;45.02;101778.44;1656433;84;21236;-73
2021/04/11 06:51:01;;;;;;;15.68;11.05;;;;;;;9.62;43.55;101775.27;1664658;85;21286;-71
2021/04/11 06:53:53;;;;;;;15.43;10.00;;;;;;;9.71;44.33;101770.47;1662950;85;21202;-72
2021/04/11 06:56:36;;;;;;;15.53;10.13;;;;;;;9.88;44.48;101777.89;1626353;87;21194;-71
2021/04/11 06:59:40;;;;;;;;;;;;;;;10.01;44.08;101777.22;1635307;85;21279;-70
2021/04/11 07:02:39;;;;;;;12.45;9.08;;;;;;;10.17;43.98;101778.96;1637894;85;20553;-71
2021/04/11 07:05:23;;;;;;;12.85;9.03;;;;;;;10.36;43.18;101781.94;1632459;87;21237;-72
2021/04/11 07:08:36;;;;;;;14.35;9.05;;;;;;;10.50;42.81;101776.73;1668559;84;21215;-74
2021/04/11 07:11:38;;;;;;;14.10;9.37;;;;;;;10.73;41.85;101781.88;1801563;78;22811;-75
2021/04/11 07:14:45;;;;;;;13.15;9.40;;;;;;;10.80;41.98;101784.73;1781968;78;21258;-71
2021/04/11 07:17:52;;;;;;;13.60;9.15;;;;;;;10.96;41.15;101781.12;1782664;78;21215;-73
2021/04/11 07:20:45;;;;;;;12.60;9.00;;;;;;;11.13;41.02;101783.94;1806698;77;21223;-75
2021/04/11 07:23:47;;;;;;;11.73;8.35;;;;;;;11.26;40.16;101781.86;1812072;78;21181;-73
2021/04/11 07:26:37;;;;;;;14.33;9.88;;;;;;;11.40;40.41;101780.30;1808173;77;21706;-73
2021/04/11 07:29:47;;;;;;;13.83;9.50;;;;;;;11.50;39.92;101783.20;1812219;77;21631;-73
2021/04/11 07:32:24;;;;;;;12.25;8.75;;;;;;;11.65;40.14;101781.41;1810526;78;21223;-72
2021/04/11 07:35:00;;;;;;;14.78;9.48;;;;;;;11.84;39.13;101785.58;1790982;78;21148;-71
2021/04/11 07:37:57;;;;;;;13.38;9.18;;;;;;;11.99;39.12;101782.42;1818342;77;21690;-72
2021/04/11 07:41:01;;;;;;;13.50;8.85;;;;;;;12.12;38.65;101783.50;1770671;79;21187;-71
2021/04/11 07:44:25;;;;;;;10.43;7.40;;;;;;;12.27;38.06;101780.83;1782704;79;21124;-73
2021/04/11 07:47:02;;;;;;;9.73;7.08;;;;;;;12.45;37.93;101783.34;1784676;78;21267;-71
2021/04/11 07:49:53;;;;;;;10.70;7.22;;;;;;;12.65;37.23;101784.23;1740381;80;21167;-73
2021/04/11 07:52:54;;;;;;;12.23;7.65;;;;;;;12.79;36.94;101784.21;1777259;80;21208;-73
2021/04/11 07:56:05;;;;;;;10.07;6.90;;;;;;;12.94;36.14;101781.53;1778809;80;21200;-71
2021/04/11 07:58:59;;;;;;;12.07;7.53;;;;;;;13.08;35.66;101778.80;1819163;77;21390;-72
2021/04/11 08:01:55;;;;;;;11.03;7.30;;;;;;;13.13;35.21;101778.90;1783950;79;21428;-70
2021/04/11 08:04:46;;;;;;;11.43;6.27;;;;;;;13.20;34.38;101775.52;1785823;79;22524;-72
2021/04/11 08:07:37;;;;;;;10.13;6.73;;;;;;;13.29;34.75;101774.59;1786736;78;21250;-71
2021/04/11 08:10:34;;;;;;;8.20;4.80;;;;;;;13.46;34.17;101777.25;1810356;77;21449;-73
2021/04/11 08:13:11;;;;;;;10.20;5.13;;;;;;;13.60;32.74;101780.70;1731465;81;21505;-72
2021/04/11 08:15:56;;;;;;;10.33;5.13;;;;;;;13.75;33.13;101774.72;1766679;78;21836;-73
2021/04/11 08:18:38;;;;;;;7.60;4.73;;;;;;;13.92;32.17;101767.98;1786011;79;21429;-73
2021/04/11 08:21:36;;;;;;;9.20;4.60;;;;;;;14.08;32.19;101767.11;1787144;78;21385;-73
2021/04/11 08:24:26;;;;;;;6.73;4.00;;;;;;;14.23;30.75;101765.11;1733171;79;21384;-71
2021/04/11 08:27:25;;;;;;;10.53;5.03;;;;;;;14.37;30.66;101760.69;1780435;79;21856;-73
2021/04/11 08:30:23;;;;;;;8.63;4.53;;;;;;;14.44;29.85;101751.88;1787408;78;21416;-71
2021/04/11 08:33:17;;;;;;;8.53;4.67;;;;;;;14.56;30.12;101754.46;1790488;78;22413;-73
2021/04/11 08:36:09;;;;;;;5.83;3.50;;;;;;;14.72;30.02;101759.73;1787116;79;21999;-73
2021/04/11 08:39:25;;;;;;;5.47;3.20;;;;;;;14.86;29.28;101756.61;1793555;79;21337;-72
2021/04/11 08:42:16;;;;;;;6.37;4.00;;;;;;;14.98;28.13;101752.69;1785817;78;21404;-71
2021/04/11 08:45:11;;;;;;;7.80;3.60;;;;;;;15.06;27.85;101749.24;1789142;79;21389;-73
2021/04/11 08:48:13;;;;;;;20.80;6.27;;;;;;;15.08;27.55;101747.11;1759689;79;21472;-71
2021/04/11 08:51:09;;;;;;;18.65;5.65;;;;;;;15.17;26.66;101746.38;1791553;78;21975;-72
2021/04/11 08:54:09;;;;;;;10.80;5.13;;;;;;;15.17;26.19;101741.54;1790278;78;21202;-71
2021/04/11 08:57:02;;;;;;;11.87;5.57;;;;;;;15.18;27.47;101739.11;1786556;79;21290;-72
2021/04/11 08:59:56;;;;;;;8.53;4.80;;;;;;;15.28;27.83;101739.72;1787981;79;21510;-72
2021/04/11 09:03:13;;;;;;;9.20;4.47;;;;;;;15.42;27.54;101732.80;1785750;78;21532;-72
2021/04/11 09:05:59;;;;;;;11.33;5.13;;;;;;;15.63;25.99;101722.42;1793598;78;22003;-72
2021/04/11 09:08:57;;;;;;;8.43;4.93;;;;;;;15.63;25.99;101722.42;1780907;79;22060;-71
2021/04/11 09:11:51;;;;;;;10.43;5.90;;;;;;;15.48;25.89;101713.71;1787779;78;21464;-72
2021/04/11 09:14:51;;;;;;;10.30;5.50;;;;;;;15.49;25.84;101708.59;1737851;79;23519;-75
2021/04/11 09:17:42;;;;;;;8.25;5.10;;;;;;;15.42;26.37;101705.33;1706820;83;21307;-72
2021/04/11 09:20:49;;;;;;;7.40;5.40;;;;;;;15.52;26.54;101707.27;1662708;83;21291;-72
2021/04/11 09:23:50;;;;;;;8.57;5.43;;;;;;;15.58;26.65;101704.87;1712315;82;21217;-72
2021/04/11 09:26:41;;;;;;;10.87;5.10;;;;;;;15.82;26.73;101700.42;1711449;82;21605;-76
2021/04/11 09:29:39;;;;;;;7.78;4.90;;;;;;;15.82;26.73;101700.42;1702135;83;21695;-72
2021/04/11 09:32:19;;;;;;;9.60;5.10;;;;;;;15.87;25.50;101701.80;1712209;82;22184;-72
2021/04/11 09:35:12;;;;;;;8.90;5.07;;;;;;;15.86;24.95;101695.61;1705287;83;21630;-72
2021/04/11 09:38:09;;;;;;;8.37;4.63;;;;;;;15.81;25.52;101694.77;1708218;83;21653;-73
2021/04/11 09:41:03;;;;;;;11.53;5.43;;;;;;;15.81;25.52;101694.77;1714458;82;21623;-71
2021/04/11 09:44:11;;;;;;;7.60;5.43;;;;;;;15.89;26.06;101690.20;1709481;82;22220;-71
2021/04/11 09:46:53;;;;;;;8.03;4.37;;;;;;;16.02;25.80;101689.70;1705035;81;21683;-73
2021/04/11 09:50:02;;;;;;;8.13;5.20;;;;;;;16.12;25.08;101677.63;1714662;81;21780;-72
2021/04/11 09:52:57;;;;;;;7.57;4.67;;;;;;;16.05;24.29;101683.78;1714114;82;21953;-72
2021/04/11 09:55:36;;;;;;;8.33;5.33;;;;;;;15.88;24.93;101683.20;1699327;81;21670;-71
2021/04/11 09:58:44;;;;;;;7.07;4.70;;;;;;;15.83;24.22;101684.55;1685154;83;21740;-72
2021/04/11 10:01:46;;;;;;;6.87;4.60;;;;;;;15.69;23.92;101680.17;1705831;82;21736;-72
2021/04/11 10:04:37;;;;;;;6.43;4.87;;;;;;;15.62;25.68;101680.38;1713039;81;22384;-73
2021/04/11 10:07:28;;;;;;;7.57;4.50;;;;;;;15.97;23.65;101674.88;1711170;81;22297;-70
2021/04/11 10:10:27;;;;;;;8.67;5.30;;;;;;;15.97;23.65;101674.88;1716257;82;21986;-72
2021/04/11 10:13:38;;;;;;;10.53;5.37;;;;;;;15.99;23.98;101671.91;1710061;82;22241;-72
2021/04/11 10:16:51;;;;;;;8.60;4.93;;;;;;;16.20;24.66;101665.50;1665221;84;22065;-73
2021/04/11 10:19:53;;;;;;;9.17;5.17;;;;;;;16.40;25.44;101672.80;1683867;84;22078;-73
2021/04/11 10:22:32;;;;;;;9.60;5.30;;;;;;;16.40;25.44;101672.80;1665381;84;21793;-72
2021/04/11 10:25:30;;;;;;;9.07;5.03;;;;;;;16.54;24.42;101671.72;1696060;82;21270;-71
2021/04/11 10:28:20;;;;;;;10.07;5.93;;;;;;;16.64;24.16;101664.43;1698034;82;22349;-73
2021/04/11 10:31:21;;;;;;;8.97;4.90;;;;;;;16.64;23.88;101660.38;1698701;82;22509;-73
2021/04/11 10:34:14;;;;;;;8.87;5.47;;;;;;;16.65;22.80;101658.52;1698419;82;21926;-74
2021/04/11 10:37:03;;;;;;;8.47;4.60;;;;;;;16.55;22.87;101663.89;1702933;82;22151;-74
2021/04/11 10:40:07;;;;;;;9.77;5.23;;;;;;;16.60;23.58;101657.16;1700450;82;21935;-74
2021/04/11 10:43:03;;;;;;;7.53;5.00;;;;;;;16.75;23.06;101659.05;1692854;82;21855;-74
2021/04/11 10:46:02;;;;;;;9.33;5.33;;;;;;;16.90;24.07;101655.00;1701500;82;21901;-73
2021/04/11 10:49:09;;;;;;;7.93;5.13;;;;;;;17.01;24.73;101657.97;1697997;84;21868;-72
2021/04/11 10:51:49;;;;;;;8.57;5.40;;;;;;;17.14;23.71;101661.16;1713142;82;22252;-74
2021/04/11 10:54:46;;;;;;;7.37;5.10;;;;;;;17.14;23.18;101653.86;1683857;82;22044;-72
2021/04/11 10:58:00;;;;;;;8.03;5.20;;;;;;;17.17;23.52;101647.11;1686005;82;21878;-74
2021/04/11 11:00:49;;;;;;;9.07;5.63;;;;;;;17.20;23.23;101641.16;1707108;82;21879;-73
2021/04/11 11:04:08;;;;;;;9.40;5.70;;;;;;;17.22;23.49;101637.66;1688304;83;22334;-73
2021/04/11 11:06:50;;;;;;;8.40;5.47;;;;;;;17.19;23.77;101632.81;1679755;82;21945;-72
2021/04/11 11:09:43;;;;;;;8.83;5.57;;;;;;;17.19;23.79;101634.96;1699239;82;21201;-73
2021/04/11 11:12:36;;;;;;;9.93;6.70;;;;;;;17.23;23.74;101631.97;1698324;82;21878;-74
2021/04/11 11:15:40;;;;;;;8.80;5.80;;;;;;;17.07;23.20;101627.16;1697840;82;21866;-73
2021/04/11 11:18:23;;;;;;;8.93;5.80;;;;;;;16.78;23.13;101621.58;1704289;82;21878;-71
2021/04/11 11:21:02;;;;;;;8.50;5.80;;;;;;;16.57;23.72;101623.98;1698665;83;21923;-73
2021/04/11 11:24:14;;;;;;;9.20;5.47;;;;;;;16.53;23.84;101621.56;1690368;82;22013;-73
2021/04/11 11:27:20;;;;;;;8.90;5.25;;;;;;;16.60;24.29;101618.05;1689456;82;21937;-72
2021/04/11 11:30:17;;;;;;;7.23;5.03;;;;;;;16.76;23.53;101620.23;1689751;82;21707;-70
2021/04/11 11:32:53;;;;;;;7.87;5.03;;;;;;;16.75;24.40;101615.38;1685502;84;22577;-72
2021/04/11 11:35:22;;;;;;;7.90;4.97;;;;;;;16.84;23.66;101608.86;1698042;84;22370;-72
2021/04/11 11:38:07;;;;;;;8.47;5.17;;;;;;;16.86;23.78;101603.47;1702116;82;21980;-73
2021/04/11 11:41:08;;;;;;;8.37;5.90;;;;;;;16.93;23.93;101599.13;1706545;82;22137;-73
2021/04/11 11:44:20;;;;;;;8.63;5.40;;;;;;;16.97;23.85;101600.74;1700502;82;21881;-72
2021/04/11 11:46:54;;;;;;;8.15;5.25;;;;;;;17.03;23.83;101597.75;1690050;82;21872;-72
2021/04/11 11:49:37;;;;;;;6.50;4.37;;;;;;;17.16;24.25;101595.02;1700911;82;21228;-72
2021/04/11 11:52:13;;;;;;;7.80;5.30;;;;;;;17.32;24.07;101591.17;1677703;84;22344;-72
2021/04/11 11:54:57;;;;;;;8.93;5.33;;;;;;;17.51;24.20;101575.70;1691707;82;22004;-72
2021/04/11 11:57:45;;;;;;;8.40;5.10;;;;;;;17.51;24.20;101575.70;1701128;82;21241;-72
2021/04/11 12:00:25;;;;;;;7.60;4.67;;;;;;;17.68;24.05;101580.18;1697179;84;21886;-72
2021/04/11 12:03:18;;;;;;;8.20;5.47;;;;;;;17.76;23.38;101579.61;1696628;82;21628;-73
2021/04/11 12:06:12;;;;;;;8.33;5.90;;;;;;;17.70;23.16;101573.97;1698046;82;21565;-72
2021/04/11 12:09:07;;;;;;;7.87;5.30;;;;;;;17.67;23.65;101570.98;1698104;84;21173;-73
2021/04/11 12:12:07;;;;;;;8.43;6.37;;;;;;;17.68;23.74;101565.87;1701819;82;21228;-72
2021/04/11 12:14:44;;;;;;;8.30;5.43;;;;;;;17.47;22.88;101563.81;1697849;82;21337;-73
2021/04/11 12:17:24;;;;;;;6.33;4.87;;;;;;;17.37;23.92;101565.22;1700820;82;21540;-72
2021/04/11 12:20:10;;;;;;;7.73;5.40;;;;;;;17.37;23.92;101565.22;1665892;82;21216;-72
2021/04/11 12:23:01;;;;;;;6.77;4.83;;;;;;;17.41;23.53;101563.05;1685701;84;21141;-74
2021/04/11 12:25:33;;;;;;;7.63;5.00;;;;;;;17.47;23.95;101561.11;1695890;83;21326;-72
2021/04/11 12:28:26;;;;;;;8.33;4.47;;;;;;;17.62;24.08;101558.87;1690119;84;21386;-72
2021/04/11 12:30:54;;;;;;;7.23;5.00;;;;;;;17.77;23.73;101558.27;1684072;84;21135;-73
2021/04/11 12:33:43;;;;;;;7.33;5.67;;;;;;;17.90;23.87;101554.66;1699689;82;21156;-73
2021/04/11 12:36:22;;;;;;;6.87;4.73;;;;;;;17.97;22.86;101547.86;1675432;83;21138;-73
2021/04/11 12:39:04;;;;;;;6.87;4.37;;;;;;;17.96;23.67;101550.83;1691826;82;21157;-72
2021/04/11 12:42:02;;;;;;;;;;;;;;;18.02;23.39;101557.27;1702809;83;22335;-73
2021/04/11 12:44:50;;;;;;;7.73;5.07;;;;;;;18.05;22.75;101557.25;1696623;82;20259;-73